createdAt,value
2019-03-16T00:02:18.731Z,6.80
2019-03-16T00:07:43.124Z,6.70
2019-03-16T00:12:48.666Z,6.50
2019-03-16T00:18:13.239Z,6.40
2019-03-16T00:23:19.030Z,6.20
2019-03-16T00:28:24.386Z,6.20
2019-03-16T00:33:29.694Z,6.10
2019-03-16T00:38:35.184Z,6.10
2019-03-16T00:43:40.354Z,6.10
2019-03-16T00:48:46.183Z,6.20
2019-03-16T00:53:51.515Z,6.20
2019-03-16T00:58:56.634Z,6.30
2019-03-16T01:04:02.004Z,6.40
2019-03-16T01:09:08.643Z,6.40
2019-03-16T01:14:14.215Z,6.40
2019-03-16T01:19:19.860Z,6.50
2019-03-16T01:24:25.317Z,6.50
2019-03-16T01:29:30.644Z,6.50
2019-03-16T01:34:35.794Z,6.50
2019-03-16T01:40:00.398Z,6.50
2019-03-16T01:45:25.019Z,6.40
2019-03-16T01:50:40.046Z,6.10
2019-03-16T01:56:04.642Z,5.90
2019-03-16T02:01:21.620Z,5.60
2019-03-16T02:06:39.332Z,5.40
2019-03-16T02:11:45.298Z,5.30
2019-03-16T02:16:51.416Z,5.20
2019-03-16T02:21:57.139Z,5.10
2019-03-16T02:27:03.797Z,5.00
2019-03-16T02:32:09.789Z,5.00
2019-03-16T02:37:15.741Z,4.90
2019-03-16T02:42:40.816Z,4.90
2019-03-16T02:47:46.564Z,4.90
2019-03-16T02:52:52.767Z,4.90
2019-03-16T02:57:58.774Z,4.90
2019-03-16T03:03:05.144Z,4.90
2019-03-16T03:08:29.799Z,4.90
2019-03-16T03:13:34.933Z,4.90
2019-03-16T03:18:59.516Z,4.80
2019-03-16T03:24:04.681Z,4.80
2019-03-16T03:29:29.276Z,4.80
2019-03-16T03:34:34.135Z,4.70
2019-03-16T03:39:59.083Z,4.70
2019-03-16T03:45:24.097Z,4.70
2019-03-16T03:50:39.684Z,4.70
2019-03-16T03:55:44.825Z,4.70
2019-03-16T04:01:09.239Z,4.70
2019-03-16T04:06:14.418Z,4.70
2019-03-16T04:11:39.269Z,4.70
2019-03-16T04:16:44.551Z,4.70
2019-03-16T04:21:49.734Z,4.70
2019-03-16T04:26:54.939Z,4.70
2019-03-16T04:32:00.145Z,4.70
2019-03-16T04:37:24.599Z,4.70
2019-03-16T04:42:49.650Z,4.60
2019-03-16T04:47:54.927Z,4.60
2019-03-16T04:53:19.548Z,4.50
2019-03-16T04:58:25.184Z,4.50
2019-03-16T05:03:30.416Z,4.40
2019-03-16T05:08:35.608Z,4.40
2019-03-16T05:13:40.944Z,4.40
2019-03-16T05:18:46.042Z,4.40
2019-03-16T05:23:51.215Z,4.40
2019-03-16T05:28:57.144Z,4.50
2019-03-16T05:34:22.000Z,4.50
2019-03-16T05:39:27.163Z,4.50
2019-03-16T05:44:32.318Z,4.50
2019-03-16T05:49:57.111Z,4.50
2019-03-16T05:55:02.665Z,4.50
2019-03-16T06:00:27.484Z,4.50
2019-03-16T06:05:32.370Z,4.50
2019-03-16T06:10:37.588Z,4.50
2019-03-16T06:15:43.136Z,4.50
2019-03-16T06:21:09.593Z,4.50
2019-03-16T06:26:25.046Z,4.50
2019-03-16T06:31:30.232Z,4.50
2019-03-16T06:36:35.258Z,4.50
2019-03-16T06:41:59.959Z,4.50
2019-03-16T06:47:04.995Z,4.50
2019-03-16T06:52:29.358Z,4.50
2019-03-16T06:57:34.645Z,4.40
2019-03-16T07:02:39.969Z,4.40
2019-03-16T07:07:45.098Z,4.40
2019-03-16T07:12:50.397Z,4.40
2019-03-16T07:17:55.547Z,4.50
2019-03-16T07:23:01.133Z,4.50
2019-03-16T07:28:06.936Z,4.60
2019-03-16T07:33:31.513Z,4.70
2019-03-16T07:38:36.837Z,4.90
2019-03-16T07:43:41.883Z,5.00
2019-03-16T07:48:46.827Z,5.20
2019-03-16T07:53:51.992Z,5.40
2019-03-16T07:59:16.768Z,5.60
2019-03-16T08:04:21.412Z,5.80
2019-03-16T08:09:26.921Z,5.90
2019-03-16T08:14:32.204Z,6.00
2019-03-16T08:19:37.447Z,6.20
2019-03-16T08:24:42.499Z,6.40
2019-03-16T08:29:47.935Z,6.40
2019-03-16T08:35:12.292Z,6.40
2019-03-16T08:40:17.864Z,6.30
2019-03-16T08:45:23.137Z,6.30
2019-03-16T08:50:28.521Z,6.30
2019-03-16T08:55:53.023Z,6.40
2019-03-16T09:00:58.438Z,6.50
2019-03-16T09:06:22.857Z,6.70
2019-03-16T09:11:38.458Z,6.70
2019-03-16T09:17:03.072Z,6.70
2019-03-16T09:22:08.457Z,6.70
2019-03-16T09:27:13.846Z,6.80
2019-03-16T09:32:37.937Z,6.90
2019-03-16T09:38:05.197Z,7.00
2019-03-16T09:43:09.475Z,7.10
2019-03-16T09:48:14.837Z,7.30
2019-03-16T09:53:20.116Z,7.50
2019-03-16T09:58:31.111Z,7.50
2019-03-16T10:03:32.211Z,7.40
2019-03-16T10:08:56.635Z,7.40
2019-03-16T10:14:02.074Z,7.30
2019-03-16T10:19:07.423Z,7.40
2019-03-16T10:24:12.569Z,7.40
2019-03-16T10:29:17.751Z,7.30
2019-03-16T10:34:22.968Z,7.30
2019-03-16T10:39:27.986Z,7.20
2019-03-16T10:44:32.889Z,7.00
2019-03-16T10:49:38.256Z,7.00
2019-03-16T10:54:43.467Z,7.00
2019-03-16T11:00:09.507Z,7.10
2019-03-16T11:05:14.999Z,7.30
2019-03-16T11:10:39.499Z,7.50
2019-03-16T11:15:44.815Z,7.60
2019-03-16T11:20:49.823Z,7.50
2019-03-16T11:25:55.103Z,7.30
2019-03-16T11:31:10.215Z,7.40
2019-03-16T11:36:15.706Z,7.50
2019-03-16T11:41:20.584Z,7.60
2019-03-16T11:46:25.855Z,7.60
2019-03-16T11:51:31.156Z,7.70
2019-03-16T11:56:36.749Z,7.70
2019-03-16T12:01:42.120Z,7.90
2019-03-16T12:06:46.966Z,8.20
2019-03-16T12:11:52.433Z,8.20
2019-03-16T12:17:17.329Z,8.20
2019-03-16T12:22:22.530Z,8.30
2019-03-16T12:27:39.697Z,8.60
2019-03-16T12:32:57.028Z,8.70
2019-03-16T12:38:02.303Z,8.70
2019-03-16T12:43:26.941Z,8.70
2019-03-16T12:48:32.441Z,8.90
2019-03-16T12:53:39.526Z,9.00
2019-03-16T12:58:44.836Z,9.00
2019-03-16T13:03:50.576Z,8.90
2019-03-16T13:08:56.092Z,9.00
2019-03-16T13:14:20.897Z,9.50
2019-03-16T13:19:26.418Z,10.10
2019-03-16T13:24:31.851Z,10.10
2019-03-16T13:29:37.699Z,9.60
2019-03-16T13:34:42.830Z,9.40
2019-03-16T13:39:48.770Z,9.40
2019-03-16T13:44:54.293Z,9.30
2019-03-16T13:49:59.959Z,9.30
2019-03-16T13:55:06.896Z,9.30
2019-03-16T14:00:31.573Z,9.30
2019-03-16T14:05:46.865Z,9.40
2019-03-16T14:10:52.643Z,9.50
2019-03-16T14:15:58.501Z,9.60
2019-03-16T14:21:03.339Z,9.80
2019-03-16T14:26:08.565Z,9.70
2019-03-16T14:31:14.284Z,9.80
2019-03-16T14:36:19.822Z,10.00
2019-03-16T14:41:25.116Z,10.40
2019-03-16T14:46:30.579Z,10.70
2019-03-16T14:51:35.836Z,10.80
2019-03-16T14:56:40.911Z,10.80
2019-03-16T15:20:33.546Z,10.00
2019-03-16T15:25:39.284Z,10.00
2019-03-16T15:30:50.674Z,9.90
2019-03-16T15:35:53.476Z,9.70
2019-03-16T15:41:18.026Z,9.60
2019-03-16T15:46:23.006Z,9.60
2019-03-16T15:51:28.572Z,9.50
2019-03-16T15:56:33.901Z,9.40
2019-03-16T16:01:40.742Z,9.40
2019-03-16T16:07:13.286Z,9.20
2019-03-16T16:12:19.954Z,9.20
2019-03-16T16:17:25.526Z,9.00
2019-03-16T16:22:32.766Z,8.90
2019-03-16T16:27:38.066Z,8.70
2019-03-16T16:32:44.738Z,8.60
2019-03-16T16:37:49.759Z,8.60
2019-03-16T16:42:54.889Z,8.40
2019-03-16T16:48:00.341Z,8.30
2019-03-16T16:53:05.892Z,8.10
2019-03-16T16:58:11.066Z,8.10
2019-03-16T17:03:17.156Z,8.00
2019-03-16T17:08:22.100Z,7.80
2019-03-16T17:13:27.334Z,7.80
2019-03-16T17:18:33.097Z,7.70
2019-03-16T17:23:38.615Z,7.60
2019-03-16T17:28:54.258Z,7.50
2019-03-16T17:34:00.011Z,7.40
2019-03-16T17:39:07.259Z,7.30
2019-03-16T17:44:12.816Z,7.30
2019-03-16T17:49:37.550Z,7.30
2019-03-16T17:54:54.472Z,7.30
2019-03-16T17:59:59.786Z,7.20
2019-03-16T18:05:24.809Z,7.30
2019-03-16T18:10:30.571Z,7.30
2019-03-16T18:15:35.693Z,7.30
2019-03-16T18:20:40.563Z,7.20
2019-03-16T18:25:45.926Z,7.20
2019-03-16T18:30:54.333Z,7.20
2019-03-16T18:35:58.684Z,7.20
2019-03-16T18:41:23.260Z,7.20
2019-03-16T18:46:28.843Z,7.10
2019-03-16T18:51:33.705Z,7.00
2019-03-16T18:56:41.791Z,7.00
2019-03-16T19:01:48.044Z,6.90
2019-03-16T19:06:53.795Z,6.80
2019-03-16T19:12:18.948Z,6.80
2019-03-16T19:17:24.509Z,6.80
2019-03-16T19:22:29.703Z,6.90
2019-03-16T19:27:35.542Z,6.90
2019-03-16T19:32:40.629Z,6.90
2019-03-16T19:38:05.233Z,6.90
2019-03-16T19:43:10.811Z,7.00
2019-03-16T19:48:35.217Z,7.00
2019-03-16T19:53:51.953Z,7.10
2019-03-16T19:59:00.775Z,7.10
2019-03-16T20:04:04.389Z,7.10
2019-03-16T20:09:28.919Z,7.10
2019-03-16T20:14:34.303Z,7.10
2019-03-16T20:19:40.229Z,7.00
2019-03-16T20:24:45.273Z,7.00
2019-03-16T20:29:50.894Z,7.10
2019-03-16T20:34:56.665Z,7.00
2019-03-16T20:40:02.079Z,7.00
2019-03-16T20:45:09.614Z,6.90
2019-03-16T20:50:16.614Z,6.80
2019-03-16T20:55:22.152Z,6.70
2019-03-16T21:00:46.551Z,6.60
2019-03-16T21:05:51.794Z,6.60
2019-03-16T21:11:16.243Z,6.40
2019-03-16T21:16:21.430Z,6.30
2019-03-16T21:21:27.147Z,6.10
2019-03-16T21:26:32.269Z,6.00
2019-03-16T21:31:47.507Z,6.00
2019-03-16T21:37:11.761Z,5.80
2019-03-16T21:42:17.487Z,5.60
2019-03-16T21:47:22.709Z,5.50
2019-03-16T21:52:47.422Z,5.40
2019-03-16T21:57:52.600Z,5.30
2019-03-16T22:03:17.174Z,5.20
2019-03-16T22:08:22.725Z,5.10
2019-03-16T22:13:28.107Z,5.20
2019-03-16T22:18:33.493Z,5.10
2019-03-16T22:23:38.654Z,5.00
2019-03-16T22:28:44.193Z,5.00
2019-03-16T22:34:08.651Z,5.00
2019-03-16T22:39:33.632Z,5.00
2019-03-16T22:44:38.985Z,4.90
2019-03-16T22:50:03.597Z,5.00
2019-03-16T22:55:28.011Z,4.90
2019-03-16T23:00:37.241Z,4.90
2019-03-16T23:05:42.233Z,5.00
2019-03-16T23:10:47.573Z,5.00
2019-03-16T23:15:52.753Z,5.00
2019-03-16T23:20:57.915Z,5.00
2019-03-16T23:26:03.704Z,5.00
2019-03-16T23:31:12.348Z,5.00
2019-03-16T23:36:16.324Z,5.10
2019-03-16T23:41:41.047Z,5.10
2019-03-16T23:46:46.456Z,5.10
2019-03-16T23:52:11.499Z,5.10
2019-03-16T23:57:16.801Z,5.10
